Igarassu, Brazil
Current Conditions -  °F | °C
As of 11:00 PM on Saturday 22 Nov 2014 (Local Time) from SBRF Reporting Station
Rain Showers Rain Showers  
Wind Chill: 79°   Ceiling: Unl
Heat Index: 82°   Visibility: 6mi
Dew Point: 72°   Wind: 6mph
Humidity: 78%   Direction: 60°ENE
Pressure: 29.91"   Gusts: NA
Location:  7.83°S, 34.91°W
Report Text: SBRF 230200Z 06005KT 9999 VCSH SCT020 26/22 Q1013
Loading
Personal Weather Stations






























Interactive Weather Map New forecast layout! Learn more

10-Day Weather Forecast

Advertisements
Track Severe Weather on mobile